createdAt,value
2023-02-22T00:02:27.323Z,115.94
2023-02-22T00:05:33.707Z,117.65
2023-02-22T00:08:40.998Z,118.61
2023-02-22T00:11:52.409Z,119.59
2023-02-22T00:14:59.103Z,123.75
2023-02-22T00:18:07.690Z,124.92
2023-02-22T00:21:17.457Z,135.00
2023-02-22T00:24:26.520Z,139.54
2023-02-22T00:27:35.941Z,146.13
2023-02-22T00:30:43.906Z,147.67
2023-02-22T00:33:51.124Z,140.48
2023-02-22T00:36:56.957Z,136.66
2023-02-22T00:40:08.643Z,126.42
2023-02-22T00:43:17.786Z,118.39
2023-02-22T00:46:24.545Z,116.79
2023-02-22T00:49:32.211Z,112.73
2023-02-22T00:52:39.030Z,115.20
2023-02-22T00:55:45.196Z,110.11
2023-02-22T00:58:54.526Z,102.77
2023-02-22T01:02:00.500Z,91.40
2023-02-22T01:05:07.880Z,93.05
2023-02-22T01:08:17.016Z,93.89
2023-02-22T01:11:24.295Z,89.74
2023-02-22T01:14:32.992Z,89.51
2023-02-22T01:17:44.101Z,93.14
2023-02-22T01:20:50.232Z,94.11
2023-02-22T01:23:57.593Z,98.12
2023-02-22T01:27:03.730Z,105.24
2023-02-22T01:30:17.469Z,115.64
2023-02-22T01:33:23.445Z,119.82
2023-02-22T01:36:30.233Z,116.95
2023-02-22T01:39:36.294Z,109.47
2023-02-22T01:42:43.062Z,105.45
2023-02-22T01:46:01.114Z,106.58
2023-02-22T01:49:11.048Z,111.69
2023-02-22T01:52:24.767Z,115.44
2023-02-22T01:55:32.377Z,116.06
2023-02-22T01:58:47.349Z,115.44
2023-02-22T02:01:56.910Z,117.14
2023-02-22T02:05:08.467Z,108.77
2023-02-22T02:08:31.158Z,111.72
2023-02-22T02:11:40.573Z,111.10
2023-02-22T02:14:47.306Z,112.36
2023-02-22T02:18:03.443Z,127.78
2023-02-22T02:21:49.996Z,109.93
2023-02-22T02:25:42.667Z,117.01
2023-02-22T02:29:29.619Z,113.34
2023-02-22T02:32:58.994Z,113.89
2023-02-22T02:36:15.564Z,111.47
2023-02-22T02:39:33.229Z,117.11
2023-02-22T02:42:50.956Z,112.47
2023-02-22T02:46:07.450Z,125.31
2023-02-22T02:49:25.309Z,147.56
2023-02-22T02:52:38.341Z,130.62
2023-02-22T02:55:44.312Z,131.31
2023-02-22T02:58:54.186Z,127.31
2023-02-22T03:02:34.822Z,141.65
2023-02-22T03:06:10.627Z,167.71
2023-02-22T03:09:42.211Z,199.02
2023-02-22T03:13:03.385Z,209.85
2023-02-22T03:16:24.784Z,230.06
2023-02-22T03:19:48.458Z,209.89
2023-02-22T03:23:10.116Z,205.14
2023-02-22T03:26:28.061Z,213.75
2023-02-22T03:29:46.245Z,208.15
2023-02-22T03:33:11.446Z,228.21
2023-02-22T03:36:25.228Z,231.39
2023-02-22T03:39:48.502Z,207.66
2023-02-22T03:43:03.604Z,231.26
2023-02-22T03:46:20.104Z,231.72
2023-02-22T03:49:38.115Z,195.66
2023-02-22T03:52:50.377Z,210.87
2023-02-22T03:56:16.128Z,295.36
2023-02-22T03:59:28.336Z,271.95
2023-02-22T04:02:34.196Z,228.13
2023-02-22T04:05:42.556Z,227.56
2023-02-22T04:08:49.084Z,263.75
2023-02-22T04:12:02.490Z,214.11
2023-02-22T04:15:21.928Z,241.10
2023-02-22T04:18:30.868Z,241.71
2023-02-22T04:21:36.964Z,243.03
2023-02-22T04:24:49.212Z,234.86
2023-02-22T04:28:08.023Z,218.36
2023-02-22T04:31:34.172Z,212.88
2023-02-22T04:34:40.066Z,211.55
2023-02-22T04:37:47.137Z,247.83
2023-02-22T04:40:53.196Z,224.49
2023-02-22T04:44:14.327Z,221.09
2023-02-22T04:47:20.340Z,237.66
2023-02-22T04:50:28.424Z,256.60
2023-02-22T04:53:35.379Z,287.23
2023-02-22T04:56:42.156Z,277.22
2023-02-22T04:59:51.415Z,291.46
2023-02-22T05:02:58.458Z,353.56
2023-02-22T05:06:09.141Z,362.66
2023-02-22T05:09:15.860Z,318.86
2023-02-22T05:12:21.823Z,320.52
2023-02-22T05:15:31.308Z,302.76
2023-02-22T05:18:37.209Z,418.70
2023-02-22T05:21:44.128Z,717.71
2023-02-22T05:24:49.988Z,755.38
2023-02-22T05:28:00.852Z,897.20
2023-02-22T05:31:10.086Z,752.09
2023-02-22T05:34:17.256Z,536.92
2023-02-22T05:37:23.024Z,482.06
2023-02-22T05:40:31.026Z,412.19
2023-02-22T05:43:36.972Z,389.24
2023-02-22T05:46:46.345Z,384.23
2023-02-22T05:49:52.207Z,396.40
2023-02-22T05:52:59.589Z,376.27
2023-02-22T05:56:05.711Z,489.20
2023-02-22T05:59:18.128Z,624.34
2023-02-22T06:02:26.624Z,604.10
2023-02-22T06:05:34.512Z,654.57
2023-02-22T06:08:41.069Z,645.08
2023-02-22T06:11:47.820Z,763.10
2023-02-22T06:14:53.767Z,695.35
2023-02-22T06:18:04.471Z,760.64
2023-02-22T06:21:12.247Z,632.19
2023-02-22T06:24:18.985Z,583.68
2023-02-22T06:27:24.910Z,698.39
2023-02-22T06:30:40.567Z,699.05
2023-02-22T06:33:50.220Z,744.70
2023-02-22T06:36:58.572Z,663.96
2023-02-22T06:40:06.314Z,661.81
2023-02-22T06:43:12.997Z,674.72
2023-02-22T06:46:19.759Z,702.82
2023-02-22T06:49:30.427Z,697.35
2023-02-22T06:52:36.372Z,630.04
2023-02-22T06:55:43.102Z,626.44
2023-02-22T06:58:54.016Z,628.15
2023-02-22T07:02:00.654Z,629.50
2023-02-22T07:05:09.880Z,550.26
2023-02-22T07:08:17.182Z,500.34
2023-02-22T07:11:23.134Z,481.50
2023-02-22T07:14:29.756Z,449.87
2023-02-22T07:17:35.625Z,358.38
2023-02-22T07:20:46.872Z,439.21
2023-02-22T07:23:59.220Z,462.26
2023-02-22T07:27:06.454Z,460.35
2023-02-22T07:30:21.697Z,436.41
2023-02-22T07:33:28.368Z,374.38
2023-02-22T07:36:36.828Z,340.30
2023-02-22T07:39:45.581Z,314.06
2023-02-22T07:42:56.940Z,296.68
2023-02-22T07:46:15.710Z,296.51
2023-02-22T07:49:22.222Z,309.29
2023-02-22T07:52:33.491Z,387.24
2023-02-22T07:55:39.749Z,487.71
2023-02-22T07:58:46.765Z,484.80
2023-02-22T08:01:54.354Z,512.45
2023-02-22T08:05:05.822Z,540.31
2023-02-22T08:08:15.062Z,551.19
2023-02-22T08:11:22.404Z,432.01
2023-02-22T08:14:28.508Z,429.02
2023-02-22T08:17:35.122Z,577.42
2023-02-22T08:20:43.774Z,608.39
2023-02-22T08:23:57.139Z,625.17
2023-02-22T08:27:05.027Z,664.21
2023-02-22T08:30:20.057Z,691.61
2023-02-22T08:33:26.205Z,666.28
2023-02-22T08:36:33.275Z,663.65
2023-02-22T08:39:41.777Z,653.26
2023-02-22T08:42:48.616Z,602.14
2023-02-22T08:45:57.402Z,523.20
2023-02-22T08:49:09.113Z,499.97
2023-02-22T08:52:26.943Z,424.26
2023-02-22T08:55:39.976Z,340.89
2023-02-22T08:58:45.919Z,302.01
2023-02-22T09:01:52.622Z,284.57
2023-02-22T09:04:58.612Z,268.87
2023-02-22T09:08:05.700Z,242.24
2023-02-22T09:11:14.912Z,243.62
2023-02-22T09:14:21.890Z,256.15
2023-02-22T09:17:28.087Z,271.61
2023-02-22T09:20:36.115Z,244.82
2023-02-22T09:23:41.971Z,172.84
2023-02-22T09:27:02.562Z,155.68
2023-02-22T09:30:32.310Z,149.56
2023-02-22T09:33:39.564Z,150.74
2023-02-22T09:36:47.243Z,166.73
2023-02-22T09:39:54.276Z,190.96
2023-02-22T09:43:31.309Z,234.92
2023-02-22T09:46:48.801Z,287.04
2023-02-22T09:50:06.132Z,217.23
2023-02-22T09:53:30.003Z,193.19
2023-02-22T09:56:39.785Z,176.14
2023-02-22T10:00:13.212Z,170.52
2023-02-22T10:03:31.774Z,167.74
2023-02-22T10:06:42.569Z,188.14
2023-02-22T10:09:52.018Z,147.81
2023-02-22T10:13:14.262Z,157.43
2023-02-22T10:16:37.496Z,169.11
2023-02-22T10:20:17.819Z,234.46
2023-02-22T10:23:36.846Z,252.69
2023-02-22T10:26:48.562Z,267.94
2023-02-22T10:30:22.344Z,222.87
2023-02-22T10:33:41.279Z,156.76
2023-02-22T10:36:54.999Z,102.28
2023-02-22T10:40:17.572Z,97.26
2023-02-22T10:43:26.373Z,91.11
2023-02-22T10:46:37.310Z,103.36
2023-02-22T10:49:52.404Z,127.50
2023-02-22T10:52:59.362Z,104.18
2023-02-22T10:56:23.537Z,78.39
2023-02-22T10:59:36.002Z,87.24
2023-02-22T11:02:41.850Z,89.34
2023-02-22T11:05:52.753Z,84.94
2023-02-22T11:09:22.752Z,118.81
2023-02-22T11:12:33.749Z,112.14
2023-02-22T11:15:39.572Z,114.15
2023-02-22T11:18:46.573Z,140.97
2023-02-22T11:21:59.354Z,158.38
2023-02-22T11:25:09.717Z,178.75
2023-02-22T11:28:31.371Z,147.19
2023-02-22T11:31:49.512Z,136.90
2023-02-22T11:35:08.410Z,129.68
2023-02-22T11:38:25.244Z,119.99
2023-02-22T11:41:34.367Z,125.26
2023-02-22T11:44:44.825Z,121.11
2023-02-22T11:47:59.242Z,111.37
2023-02-22T11:51:40.886Z,102.00
2023-02-22T11:55:41.486Z,104.51
2023-02-22T11:59:02.967Z,114.58
2023-02-22T12:02:57.321Z,101.07
2023-02-22T12:06:31.595Z,80.98
2023-02-22T12:09:49.814Z,78.58
2023-02-22T12:13:24.181Z,85.24
2023-02-22T12:16:54.774Z,93.32
2023-02-22T12:20:16.200Z,82.70
2023-02-22T12:23:33.793Z,84.89
2023-02-22T12:26:47.668Z,84.06
2023-02-22T12:30:06.375Z,102.67
2023-02-22T12:33:21.878Z,114.31
2023-02-22T12:36:41.260Z,70.14
2023-02-22T12:40:09.938Z,83.91
2023-02-22T12:43:26.959Z,113.93
2023-02-22T12:46:47.386Z,85.24
2023-02-22T12:50:09.436Z,120.36
2023-02-22T12:53:27.205Z,131.20
2023-02-22T12:56:44.002Z,76.51
2023-02-22T13:00:04.546Z,86.33
2023-02-22T13:03:42.372Z,134.18
2023-02-22T13:07:26.972Z,189.56
2023-02-22T13:11:08.650Z,125.30
2023-02-22T13:14:47.848Z,93.75
2023-02-22T13:18:08.352Z,82.29
2023-02-22T13:21:32.026Z,95.22
2023-02-22T13:24:56.905Z,92.98
2023-02-22T13:28:23.944Z,99.39
2023-02-22T13:31:56.419Z,100.59
2023-02-22T13:35:48.815Z,103.29
2023-02-22T13:39:55.201Z,93.12
2023-02-22T13:43:31.637Z,109.36
2023-02-22T13:47:26.260Z,102.21
2023-02-22T13:51:09.108Z,137.38
2023-02-22T13:54:29.758Z,182.22
2023-02-22T13:57:48.435Z,124.27
2023-02-22T14:00:58.678Z,126.60
2023-02-22T14:04:42.201Z,151.63
2023-02-22T14:07:52.851Z,113.49
2023-02-22T14:11:06.102Z,110.28
2023-02-22T14:14:21.054Z,109.40
2023-02-22T14:17:32.204Z,116.54
2023-02-22T14:20:44.953Z,121.98
2023-02-22T14:23:56.051Z,114.98
2023-02-22T14:27:08.622Z,115.74
2023-02-22T14:30:33.561Z,116.41
2023-02-22T14:34:11.653Z,116.71
2023-02-22T14:37:30.971Z,129.33
2023-02-22T14:40:41.295Z,111.45
2023-02-22T14:43:51.876Z,117.25
2023-02-22T14:47:10.049Z,130.81
2023-02-22T14:50:30.336Z,139.47
2023-02-22T14:53:47.044Z,131.65
2023-02-22T14:57:15.583Z,136.85
2023-02-22T15:00:31.266Z,130.01
2023-02-22T15:03:40.563Z,129.92
2023-02-22T15:06:46.893Z,159.12
2023-02-22T15:09:56.135Z,226.99
2023-02-22T15:13:15.387Z,191.25
2023-02-22T15:16:25.724Z,191.49
2023-02-22T15:19:42.571Z,285.31
2023-02-22T15:22:53.851Z,255.29
2023-02-22T15:26:01.050Z,214.73
2023-02-22T15:29:18.851Z,215.39
2023-02-22T15:32:36.864Z,212.31
2023-02-22T15:35:47.081Z,253.11
2023-02-22T15:38:57.343Z,270.03
2023-02-22T15:42:11.074Z,227.81
2023-02-22T15:45:25.405Z,207.74
2023-02-22T15:48:33.767Z,191.44
2023-02-22T15:51:49.355Z,216.46
2023-02-22T15:54:56.599Z,211.31
2023-02-22T15:58:12.165Z,253.46
2023-02-22T16:01:22.395Z,298.20
2023-02-22T16:04:34.027Z,314.72
2023-02-22T16:07:49.316Z,325.62
2023-02-22T16:11:05.684Z,411.49
2023-02-22T16:14:32.734Z,336.08
2023-02-22T16:17:55.929Z,291.92
2023-02-22T16:21:14.255Z,310.11
2023-02-22T16:24:34.810Z,338.29
2023-02-22T16:27:47.804Z,296.36
2023-02-22T16:31:05.044Z,300.10
2023-02-22T16:34:12.255Z,380.02
2023-02-22T16:37:28.772Z,448.58
2023-02-22T16:40:44.848Z,469.98
2023-02-22T16:43:53.743Z,480.06
2023-02-22T16:47:05.802Z,519.08
2023-02-22T16:50:12.437Z,638.60
2023-02-22T16:53:21.623Z,672.71
2023-02-22T16:56:33.965Z,853.92
2023-02-22T16:59:42.953Z,1144.01
2023-02-22T17:02:49.270Z,1182.22
2023-02-22T17:05:56.729Z,844.47
2023-02-22T17:09:02.577Z,738.18
2023-02-22T17:12:12.670Z,783.62
2023-02-22T17:15:27.541Z,947.60
2023-02-22T17:18:34.411Z,956.88
2023-02-22T17:21:40.404Z,840.99
2023-02-22T17:24:47.229Z,764.05
2023-02-22T17:27:55.863Z,710.27
2023-02-22T17:31:04.251Z,576.21
2023-02-22T17:34:11.165Z,714.46
2023-02-22T17:37:17.927Z,814.91
2023-02-22T17:40:23.890Z,630.58
2023-02-22T17:43:33.419Z,517.03
2023-02-22T17:46:41.015Z,494.60
2023-02-22T17:49:49.252Z,542.56
2023-02-22T17:52:55.854Z,538.34
2023-02-22T17:56:07.538Z,615.77
2023-02-22T17:59:16.285Z,489.96
2023-02-22T18:02:23.158Z,444.74
2023-02-22T18:05:29.251Z,437.95
2023-02-22T18:08:35.957Z,467.45
2023-02-22T18:11:43.418Z,539.43
2023-02-22T18:14:52.964Z,509.88
2023-02-22T18:18:00.196Z,489.40
2023-02-22T18:21:08.017Z,459.30
2023-02-22T18:24:13.961Z,423.83
2023-02-22T18:27:20.674Z,500.74
2023-02-22T18:30:29.568Z,512.04
2023-02-22T18:33:36.352Z,445.50
2023-02-22T18:36:42.303Z,374.21
2023-02-22T18:39:49.060Z,372.81
2023-02-22T18:42:54.910Z,478.09
2023-02-22T18:46:14.129Z,648.09
2023-02-22T18:49:19.977Z,636.64
2023-02-22T18:52:27.233Z,518.04
2023-02-22T18:55:33.249Z,414.24
2023-02-22T18:58:40.388Z,429.59
2023-02-22T19:01:49.349Z,441.21
2023-02-22T19:04:57.824Z,459.28
2023-02-22T19:08:04.430Z,498.34
2023-02-22T19:11:18.013Z,642.40
2023-02-22T19:14:24.015Z,595.49
2023-02-22T19:17:36.685Z,588.57
2023-02-22T19:20:44.247Z,504.23
2023-02-22T19:23:50.986Z,494.70
2023-02-22T19:27:00.076Z,457.65
2023-02-22T19:30:09.380Z,481.28
2023-02-22T19:33:17.978Z,387.33
2023-02-22T19:36:26.363Z,344.69
2023-02-22T19:39:32.771Z,368.94
2023-02-22T19:42:39.555Z,438.95
2023-02-22T19:45:45.570Z,445.95
2023-02-22T19:48:56.868Z,458.51
2023-02-22T19:52:04.024Z,373.81
2023-02-22T19:55:13.148Z,360.75
2023-02-22T19:58:19.057Z,360.35
2023-02-22T20:01:30.035Z,330.67
2023-02-22T20:04:39.205Z,465.59
2023-02-22T20:07:46.303Z,454.47
2023-02-22T20:10:53.446Z,464.93
2023-02-22T20:14:01.153Z,466.69
2023-02-22T20:17:08.023Z,426.06
2023-02-22T20:20:17.360Z,415.56
2023-02-22T20:23:23.354Z,410.20
2023-02-22T20:26:34.633Z,395.33
2023-02-22T20:29:40.557Z,392.55
2023-02-22T20:32:48.099Z,387.26
2023-02-22T20:35:56.670Z,416.72
2023-02-22T20:39:07.627Z,401.65
2023-02-22T20:42:15.766Z,359.23
2023-02-22T20:45:22.921Z,349.64
2023-02-22T20:48:28.931Z,357.89
2023-02-22T20:51:39.626Z,369.00
2023-02-22T20:54:45.800Z,379.92
2023-02-22T20:57:52.477Z,402.82
2023-02-22T21:00:58.372Z,398.71
2023-02-22T21:04:07.638Z,415.67
2023-02-22T21:07:16.212Z,423.43
2023-02-22T21:10:23.915Z,452.53
2023-02-22T21:13:30.208Z,444.36
2023-02-22T21:16:40.129Z,434.85
2023-02-22T21:19:59.296Z,468.29
2023-02-22T21:23:08.722Z,537.19
2023-02-22T21:26:19.100Z,741.56
2023-02-22T21:29:25.808Z,744.83
2023-02-22T21:32:31.717Z,556.42
2023-02-22T21:35:40.699Z,487.08
2023-02-22T21:38:53.450Z,484.24
2023-02-22T21:42:08.810Z,470.89
2023-02-22T21:45:18.648Z,468.39
2023-02-22T21:48:26.989Z,490.76
2023-02-22T21:51:43.051Z,524.83
2023-02-22T21:54:52.333Z,540.65
2023-02-22T21:57:58.476Z,586.94
2023-02-22T22:01:18.625Z,586.00
2023-02-22T22:04:32.276Z,537.99
2023-02-22T22:07:41.927Z,533.93
2023-02-22T22:10:57.835Z,535.75
2023-02-22T22:14:04.566Z,524.42
2023-02-22T22:17:10.887Z,500.43
2023-02-22T22:20:19.711Z,463.09
2023-02-22T22:23:26.670Z,446.27
2023-02-22T22:26:36.762Z,428.56
2023-02-22T22:29:47.117Z,402.12
2023-02-22T22:32:56.937Z,388.28
2023-02-22T22:36:09.812Z,376.64
2023-02-22T22:39:21.331Z,373.38
2023-02-22T22:42:29.947Z,373.48
2023-02-22T22:45:36.632Z,371.21
2023-02-22T22:48:43.079Z,363.33
2023-02-22T22:51:50.355Z,361.66
2023-02-22T22:55:00.845Z,372.31
2023-02-22T22:58:13.827Z,390.91
2023-02-22T23:01:27.214Z,403.25
2023-02-22T23:04:35.058Z,386.60
2023-02-22T23:07:40.893Z,388.83
2023-02-22T23:10:48.069Z,387.47
2023-02-22T23:13:56.781Z,392.18
2023-02-22T23:17:04.339Z,392.04
2023-02-22T23:20:14.189Z,390.23
2023-02-22T23:23:20.884Z,378.52
2023-02-22T23:26:28.858Z,379.75
2023-02-22T23:29:47.100Z,367.39
2023-02-22T23:32:52.993Z,359.42
2023-02-22T23:36:04.668Z,350.17
2023-02-22T23:39:10.711Z,335.15
2023-02-22T23:42:17.754Z,328.74
2023-02-22T23:45:28.597Z,320.47
2023-02-22T23:48:36.010Z,324.09
2023-02-22T23:51:50.333Z,321.85
2023-02-22T23:54:57.139Z,302.76
2023-02-22T23:58:05.023Z,306.09
